sensor_id;sensor_type;location;lat;lon;timestamp;P1;durP1;ratioP1;P2;durP2;ratioP2
28627;SDS011;15815;46.760;19.604;2022-09-17T00:01:44;5.43;;;3.53;;
28627;SDS011;15815;46.760;19.604;2022-09-17T00:04:10;6.80;;;3.63;;
28627;SDS011;15815;46.760;19.604;2022-09-17T00:06:35;7.68;;;3.42;;
28627;SDS011;15815;46.760;19.604;2022-09-17T00:09:02;4.47;;;4.00;;
28627;SDS011;15815;46.760;19.604;2022-09-17T00:11:30;11.25;;;3.97;;
28627;SDS011;15815;46.760;19.604;2022-09-17T00:13:58;5.78;;;4.38;;
28627;SDS011;15815;46.760;19.604;2022-09-17T00:16:27;7.85;;;3.85;;
28627;SDS011;15815;46.760;19.604;2022-09-17T00:18:58;8.55;;;4.22;;
28627;SDS011;15815;46.760;19.604;2022-09-17T00:21:24;6.55;;;4.18;;
28627;SDS011;15815;46.760;19.604;2022-09-17T00:23:54;5.75;;;4.32;;
28627;SDS011;15815;46.760;19.604;2022-09-17T00:26:21;7.28;;;4.10;;
28627;SDS011;15815;46.760;19.604;2022-09-17T00:28:50;8.20;;;4.65;;
28627;SDS011;15815;46.760;19.604;2022-09-17T00:31:17;6.70;;;4.15;;
28627;SDS011;15815;46.760;19.604;2022-09-17T00:33:42;12.38;;;4.50;;
28627;SDS011;15815;46.760;19.604;2022-09-17T00:36:08;9.20;;;5.07;;
28627;SDS011;15815;46.760;19.604;2022-09-17T00:38:33;7.47;;;4.80;;
28627;SDS011;15815;46.760;19.604;2022-09-17T00:40:59;8.73;;;5.13;;
28627;SDS011;15815;46.760;19.604;2022-09-17T00:43:31;5.70;;;4.75;;
28627;SDS011;15815;46.760;19.604;2022-09-17T00:45:59;6.97;;;4.78;;
28627;SDS011;15815;46.760;19.604;2022-09-17T00:48:24;6.50;;;5.32;;
28627;SDS011;15815;46.760;19.604;2022-09-17T00:50:50;5.68;;;4.95;;
28627;SDS011;15815;46.760;19.604;2022-09-17T00:53:17;6.47;;;5.18;;
28627;SDS011;15815;46.760;19.604;2022-09-17T00:55:47;9.85;;;5.50;;
28627;SDS011;15815;46.760;19.604;2022-09-17T00:58:19;7.65;;;5.25;;
28627;SDS011;15815;46.760;19.604;2022-09-17T01:00:46;9.75;;;5.72;;
28627;SDS011;15815;46.760;19.604;2022-09-17T01:03:12;10.10;;;5.63;;
28627;SDS011;15815;46.760;19.604;2022-09-17T01:05:46;10.35;;;5.53;;
28627;SDS011;15815;46.760;19.604;2022-09-17T01:16:50;8.05;;;5.90;;
28627;SDS011;15815;46.760;19.604;2022-09-17T01:32:42;11.77;;;5.60;;
28627;SDS011;15815;46.760;19.604;2022-09-17T01:35:20;6.10;;;5.10;;
28627;SDS011;15815;46.760;19.604;2022-09-17T01:38:07;6.07;;;5.07;;
28627;SDS011;15815;46.760;19.604;2022-09-17T01:43:22;8.80;;;5.47;;
28627;SDS011;15815;46.760;19.604;2022-09-17T01:45:55;8.77;;;5.65;;
28627;SDS011;15815;46.760;19.604;2022-09-17T01:48:28;7.60;;;5.38;;
28627;SDS011;15815;46.760;19.604;2022-09-17T01:51:07;7.47;;;5.82;;
28627;SDS011;15815;46.760;19.604;2022-09-17T01:53:37;6.70;;;5.32;;
28627;SDS011;15815;46.760;19.604;2022-09-17T01:56:08;11.82;;;5.95;;
28627;SDS011;15815;46.760;19.604;2022-09-17T01:58:45;10.45;;;5.90;;
28627;SDS011;15815;46.760;19.604;2022-09-17T02:01:15;8.50;;;5.78;;
28627;SDS011;15815;46.760;19.604;2022-09-17T02:03:46;8.45;;;5.22;;
28627;SDS011;15815;46.760;19.604;2022-09-17T02:06:22;6.63;;;5.28;;
28627;SDS011;15815;46.760;19.604;2022-09-17T02:08:55;6.57;;;5.35;;
28627;SDS011;15815;46.760;19.604;2022-09-17T02:11:24;7.38;;;5.78;;
28627;SDS011;15815;46.760;19.604;2022-09-17T02:13:54;8.20;;;6.18;;
28627;SDS011;15815;46.760;19.604;2022-09-17T02:16:24;8.23;;;5.60;;
28627;SDS011;15815;46.760;19.604;2022-09-17T02:18:55;7.53;;;6.30;;
28627;SDS011;15815;46.760;19.604;2022-09-17T02:21:32;9.52;;;6.43;;
28627;SDS011;15815;46.760;19.604;2022-09-17T02:24:15;9.73;;;5.88;;
28627;SDS011;15815;46.760;19.604;2022-09-17T02:26:48;8.57;;;5.85;;
28627;SDS011;15815;46.760;19.604;2022-09-17T02:29:22;8.88;;;6.07;;
28627;SDS011;15815;46.760;19.604;2022-09-17T02:31:55;12.73;;;6.40;;
28627;SDS011;15815;46.760;19.604;2022-09-17T02:34:20;9.10;;;6.68;;
28627;SDS011;15815;46.760;19.604;2022-09-17T02:36:47;9.52;;;6.72;;
28627;SDS011;15815;46.760;19.604;2022-09-17T02:39:12;8.27;;;6.32;;
28627;SDS011;15815;46.760;19.604;2022-09-17T02:44:12;8.68;;;6.07;;
28627;SDS011;15815;46.760;19.604;2022-09-17T02:46:47;9.95;;;6.57;;
28627;SDS011;15815;46.760;19.604;2022-09-17T02:49:47;7.82;;;7.03;;
28627;SDS011;15815;46.760;19.604;2022-09-17T02:55:19;7.63;;;5.25;;
28627;SDS011;15815;46.760;19.604;2022-09-17T02:57:52;8.90;;;6.53;;
28627;SDS011;15815;46.760;19.604;2022-09-17T03:00:48;8.63;;;6.55;;
28627;SDS011;15815;46.760;19.604;2022-09-17T03:03:22;9.82;;;6.32;;
28627;SDS011;15815;46.760;19.604;2022-09-17T03:05:52;7.93;;;6.25;;
28627;SDS011;15815;46.760;19.604;2022-09-17T03:08:18;12.27;;;6.72;;
28627;SDS011;15815;46.760;19.604;2022-09-17T03:10:45;7.57;;;6.70;;
28627;SDS011;15815;46.760;19.604;2022-09-17T03:13:13;9.57;;;7.03;;
28627;SDS011;15815;46.760;19.604;2022-09-17T03:15:39;8.63;;;6.35;;
28627;SDS011;15815;46.760;19.604;2022-09-17T03:18:04;8.25;;;6.50;;
28627;SDS011;15815;46.760;19.604;2022-09-17T03:20:30;7.47;;;6.22;;
28627;SDS011;15815;46.760;19.604;2022-09-17T03:22:56;9.48;;;6.93;;
28627;SDS011;15815;46.760;19.604;2022-09-17T03:25:21;10.38;;;6.88;;
28627;SDS011;15815;46.760;19.604;2022-09-17T03:27:46;10.23;;;7.25;;
28627;SDS011;15815;46.760;19.604;2022-09-17T03:30:12;10.32;;;6.82;;
28627;SDS011;15815;46.760;19.604;2022-09-17T03:32:37;10.65;;;7.50;;
28627;SDS011;15815;46.760;19.604;2022-09-17T03:35:03;10.63;;;6.80;;
28627;SDS011;15815;46.760;19.604;2022-09-17T03:37:28;8.32;;;6.25;;
28627;SDS011;15815;46.760;19.604;2022-09-17T03:39:54;9.63;;;6.90;;
28627;SDS011;15815;46.760;19.604;2022-09-17T03:42:20;8.57;;;6.35;;
28627;SDS011;15815;46.760;19.604;2022-09-17T03:44:45;8.00;;;6.38;;
28627;SDS011;15815;46.760;19.604;2022-09-17T03:47:10;8.98;;;6.47;;
28627;SDS011;15815;46.760;19.604;2022-09-17T03:49:36;8.40;;;6.55;;
28627;SDS011;15815;46.760;19.604;2022-09-17T03:52:01;9.65;;;6.78;;
28627;SDS011;15815;46.760;19.604;2022-09-17T03:54:27;10.23;;;6.20;;
28627;SDS011;15815;46.760;19.604;2022-09-17T03:56:52;10.23;;;6.75;;
28627;SDS011;15815;46.760;19.604;2022-09-17T03:59:18;8.75;;;6.07;;
28627;SDS011;15815;46.760;19.604;2022-09-17T04:01:43;11.23;;;6.43;;
28627;SDS011;15815;46.760;19.604;2022-09-17T04:04:08;8.07;;;6.47;;
28627;SDS011;15815;46.760;19.604;2022-09-17T04:06:34;7.10;;;6.38;;
28627;SDS011;15815;46.760;19.604;2022-09-17T04:08:59;8.15;;;6.13;;
28627;SDS011;15815;46.760;19.604;2022-09-17T04:11:25;8.70;;;6.80;;
28627;SDS011;15815;46.760;19.604;2022-09-17T04:13:51;7.30;;;6.13;;
28627;SDS011;15815;46.760;19.604;2022-09-17T04:16:16;7.63;;;6.60;;
28627;SDS011;15815;46.760;19.604;2022-09-17T04:18:41;7.25;;;6.10;;
28627;SDS011;15815;46.760;19.604;2022-09-17T04:21:07;8.07;;;5.78;;
28627;SDS011;15815;46.760;19.604;2022-09-17T04:23:32;6.90;;;5.40;;
28627;SDS011;15815;46.760;19.604;2022-09-17T04:25:57;6.55;;;5.85;;
28627;SDS011;15815;46.760;19.604;2022-09-17T04:28:23;10.00;;;5.47;;
28627;SDS011;15815;46.760;19.604;2022-09-17T04:30:48;8.93;;;6.60;;
28627;SDS011;15815;46.760;19.604;2022-09-17T04:33:14;7.20;;;6.20;;
28627;SDS011;15815;46.760;19.604;2022-09-17T04:35:39;8.18;;;6.30;;
28627;SDS011;15815;46.760;19.604;2022-09-17T04:38:04;7.95;;;6.25;;
28627;SDS011;15815;46.760;19.604;2022-09-17T04:40:30;8.05;;;6.25;;
28627;SDS011;15815;46.760;19.604;2022-09-17T04:42:55;6.97;;;6.28;;
28627;SDS011;15815;46.760;19.604;2022-09-17T04:45:23;10.13;;;6.38;;
28627;SDS011;15815;46.760;19.604;2022-09-17T04:47:49;9.30;;;6.82;;
28627;SDS011;15815;46.760;19.604;2022-09-17T04:50:16;8.60;;;6.60;;
28627;SDS011;15815;46.760;19.604;2022-09-17T04:52:42;8.85;;;7.00;;
28627;SDS011;15815;46.760;19.604;2022-09-17T04:55:08;8.05;;;6.45;;
28627;SDS011;15815;46.760;19.604;2022-09-17T04:57:34;9.27;;;6.95;;
28627;SDS011;15815;46.760;19.604;2022-09-17T04:59:59;8.10;;;6.30;;
28627;SDS011;15815;46.760;19.604;2022-09-17T05:02:25;7.28;;;5.85;;
28627;SDS011;15815;46.760;19.604;2022-09-17T05:04:50;8.38;;;6.20;;
28627;SDS011;15815;46.760;19.604;2022-09-17T05:07:15;8.40;;;6.13;;
28627;SDS011;15815;46.760;19.604;2022-09-17T05:09:41;11.88;;;6.72;;
28627;SDS011;15815;46.760;19.604;2022-09-17T05:12:06;12.82;;;6.60;;
28627;SDS011;15815;46.760;19.604;2022-09-17T05:14:32;9.38;;;6.57;;
28627;SDS011;15815;46.760;19.604;2022-09-17T05:16:57;8.10;;;6.20;;
28627;SDS011;15815;46.760;19.604;2022-09-17T05:19:22;7.88;;;5.70;;
28627;SDS011;15815;46.760;19.604;2022-09-17T05:21:47;6.60;;;5.63;;
28627;SDS011;15815;46.760;19.604;2022-09-17T05:24:13;8.93;;;7.07;;
28627;SDS011;15815;46.760;19.604;2022-09-17T05:26:38;6.38;;;5.75;;
28627;SDS011;15815;46.760;19.604;2022-09-17T05:29:03;10.45;;;5.90;;
28627;SDS011;15815;46.760;19.604;2022-09-17T05:31:29;10.48;;;5.93;;
28627;SDS011;15815;46.760;19.604;2022-09-17T05:33:56;10.88;;;6.18;;
28627;SDS011;15815;46.760;19.604;2022-09-17T05:36:22;8.77;;;6.47;;
28627;SDS011;15815;46.760;19.604;2022-09-17T05:38:47;9.15;;;5.25;;
28627;SDS011;15815;46.760;19.604;2022-09-17T05:41:13;8.02;;;5.70;;
28627;SDS011;15815;46.760;19.604;2022-09-17T05:43:38;9.13;;;6.10;;
28627;SDS011;15815;46.760;19.604;2022-09-17T05:46:04;10.85;;;6.25;;
28627;SDS011;15815;46.760;19.604;2022-09-17T05:48:30;8.77;;;5.60;;
28627;SDS011;15815;46.760;19.604;2022-09-17T05:50:56;8.50;;;5.65;;
28627;SDS011;15815;46.760;19.604;2022-09-17T05:53:21;8.60;;;6.13;;
28627;SDS011;15815;46.760;19.604;2022-09-17T05:55:47;6.07;;;5.47;;
28627;SDS011;15815;46.760;19.604;2022-09-17T05:58:13;9.07;;;6.20;;
28627;SDS011;15815;46.760;19.604;2022-09-17T06:00:40;7.82;;;5.60;;
28627;SDS011;15815;46.760;19.604;2022-09-17T06:03:07;9.05;;;6.47;;
28627;SDS011;15815;46.760;19.604;2022-09-17T06:05:35;8.98;;;6.97;;
28627;SDS011;15815;46.760;19.604;2022-09-17T06:08:00;7.80;;;6.18;;
28627;SDS011;15815;46.760;19.604;2022-09-17T06:10:26;7.25;;;5.50;;
28627;SDS011;15815;46.760;19.604;2022-09-17T06:12:55;10.90;;;5.78;;
28627;SDS011;15815;46.760;19.604;2022-09-17T06:15:21;8.45;;;5.75;;
28627;SDS011;15815;46.760;19.604;2022-09-17T06:17:46;8.60;;;5.25;;
28627;SDS011;15815;46.760;19.604;2022-09-17T06:20:11;8.25;;;5.55;;
28627;SDS011;15815;46.760;19.604;2022-09-17T06:22:37;12.07;;;5.68;;
28627;SDS011;15815;46.760;19.604;2022-09-17T06:25:02;8.18;;;5.88;;
28627;SDS011;15815;46.760;19.604;2022-09-17T06:27:31;8.80;;;5.20;;
28627;SDS011;15815;46.760;19.604;2022-09-17T06:29:57;6.82;;;5.72;;
28627;SDS011;15815;46.760;19.604;2022-09-17T06:32:22;10.52;;;5.40;;
28627;SDS011;15815;46.760;19.604;2022-09-17T06:34:48;6.38;;;4.85;;
28627;SDS011;15815;46.760;19.604;2022-09-17T06:37:13;9.73;;;5.90;;
28627;SDS011;15815;46.760;19.604;2022-09-17T06:39:39;5.68;;;5.00;;
28627;SDS011;15815;46.760;19.604;2022-09-17T06:42:04;11.30;;;5.63;;
28627;SDS011;15815;46.760;19.604;2022-09-17T06:44:30;9.63;;;6.03;;
28627;SDS011;15815;46.760;19.604;2022-09-17T06:46:55;9.07;;;6.28;;
28627;SDS011;15815;46.760;19.604;2022-09-17T06:49:20;9.48;;;5.57;;
28627;SDS011;15815;46.760;19.604;2022-09-17T06:51:46;9.15;;;5.35;;
28627;SDS011;15815;46.760;19.604;2022-09-17T06:54:11;7.45;;;5.57;;
28627;SDS011;15815;46.760;19.604;2022-09-17T06:56:36;8.93;;;5.28;;
28627;SDS011;15815;46.760;19.604;2022-09-17T06:59:02;8.65;;;5.68;;
28627;SDS011;15815;46.760;19.604;2022-09-17T07:01:28;8.02;;;5.80;;
28627;SDS011;15815;46.760;19.604;2022-09-17T07:03:53;9.65;;;6.05;;
28627;SDS011;15815;46.760;19.604;2022-09-17T07:06:18;14.27;;;6.82;;
28627;SDS011;15815;46.760;19.604;2022-09-17T07:08:44;9.82;;;6.35;;
28627;SDS011;15815;46.760;19.604;2022-09-17T07:11:11;8.85;;;5.90;;
28627;SDS011;15815;46.760;19.604;2022-09-17T07:13:37;6.65;;;4.93;;
28627;SDS011;15815;46.760;19.604;2022-09-17T07:16:03;9.45;;;5.35;;
28627;SDS011;15815;46.760;19.604;2022-09-17T07:18:29;7.20;;;5.25;;
28627;SDS011;15815;46.760;19.604;2022-09-17T07:20:56;10.45;;;5.00;;
28627;SDS011;15815;46.760;19.604;2022-09-17T07:23:23;8.25;;;5.28;;
28627;SDS011;15815;46.760;19.604;2022-09-17T07:25:53;11.38;;;5.18;;
28627;SDS011;15815;46.760;19.604;2022-09-17T07:28:23;6.90;;;5.05;;
28627;SDS011;15815;46.760;19.604;2022-09-17T07:30:50;7.90;;;5.88;;
28627;SDS011;15815;46.760;19.604;2022-09-17T07:33:16;6.15;;;5.18;;
28627;SDS011;15815;46.760;19.604;2022-09-17T07:36:00;9.40;;;5.40;;
28627;SDS011;15815;46.760;19.604;2022-09-17T07:38:27;6.95;;;5.50;;
28627;SDS011;15815;46.760;19.604;2022-09-17T07:40:57;9.15;;;5.30;;
28627;SDS011;15815;46.760;19.604;2022-09-17T07:43:24;7.20;;;5.15;;
28627;SDS011;15815;46.760;19.604;2022-09-17T07:45:51;6.68;;;5.03;;
28627;SDS011;15815;46.760;19.604;2022-09-17T07:48:17;7.35;;;5.03;;
28627;SDS011;15815;46.760;19.604;2022-09-17T07:50:44;8.15;;;5.57;;
28627;SDS011;15815;46.760;19.604;2022-09-17T07:53:09;8.82;;;5.57;;
28627;SDS011;15815;46.760;19.604;2022-09-17T07:55:35;5.55;;;5.05;;
28627;SDS011;15815;46.760;19.604;2022-09-17T07:58:00;9.23;;;5.20;;
28627;SDS011;15815;46.760;19.604;2022-09-17T08:00:25;7.97;;;5.28;;
28627;SDS011;15815;46.760;19.604;2022-09-17T08:02:52;9.27;;;6.07;;
28627;SDS011;15815;46.760;19.604;2022-09-17T08:05:18;11.43;;;6.22;;
28627;SDS011;15815;46.760;19.604;2022-09-17T08:07:43;7.93;;;5.78;;
28627;SDS011;15815;46.760;19.604;2022-09-17T08:10:09;10.10;;;5.68;;
28627;SDS011;15815;46.760;19.604;2022-09-17T08:12:34;6.88;;;5.15;;
28627;SDS011;15815;46.760;19.604;2022-09-17T08:14:59;6.55;;;5.20;;
28627;SDS011;15815;46.760;19.604;2022-09-17T08:17:25;9.00;;;5.65;;
28627;SDS011;15815;46.760;19.604;2022-09-17T08:19:50;12.70;;;6.47;;
28627;SDS011;15815;46.760;19.604;2022-09-17T08:22:15;8.02;;;5.90;;
28627;SDS011;15815;46.760;19.604;2022-09-17T08:24:41;7.15;;;5.93;;
28627;SDS011;15815;46.760;19.604;2022-09-17T08:27:06;11.73;;;6.40;;
28627;SDS011;15815;46.760;19.604;2022-09-17T08:29:32;10.02;;;5.93;;
28627;SDS011;15815;46.760;19.604;2022-09-17T08:31:57;6.97;;;5.97;;
28627;SDS011;15815;46.760;19.604;2022-09-17T08:34:22;6.82;;;5.40;;
28627;SDS011;15815;46.760;19.604;2022-09-17T08:36:48;12.68;;;7.40;;
28627;SDS011;15815;46.760;19.604;2022-09-17T08:39:13;12.15;;;6.63;;
28627;SDS011;15815;46.760;19.604;2022-09-17T08:49:29;11.80;;;6.65;;
28627;SDS011;15815;46.760;19.604;2022-09-17T08:55:42;14.00;;;7.22;;
28627;SDS011;15815;46.760;19.604;2022-09-17T09:07:15;7.95;;;6.30;;
28627;SDS011;15815;46.760;19.604;2022-09-17T09:09:47;10.45;;;6.72;;
28627;SDS011;15815;46.760;19.604;2022-09-17T09:12:21;11.05;;;6.50;;
28627;SDS011;15815;46.760;19.604;2022-09-17T09:14:53;11.00;;;5.97;;
28627;SDS011;15815;46.760;19.604;2022-09-17T09:17:26;9.25;;;5.10;;
28627;SDS011;15815;46.760;19.604;2022-09-17T09:19:57;8.55;;;6.20;;
28627;SDS011;15815;46.760;19.604;2022-09-17T09:25:00;9.27;;;5.68;;
28627;SDS011;15815;46.760;19.604;2022-09-17T09:27:42;10.35;;;5.68;;
28627;SDS011;15815;46.760;19.604;2022-09-17T09:30:13;8.82;;;5.85;;
28627;SDS011;15815;46.760;19.604;2022-09-17T09:40:40;6.10;;;4.00;;
28627;SDS011;15815;46.760;19.604;2022-09-17T09:43:12;6.15;;;4.50;;
28627;SDS011;15815;46.760;19.604;2022-09-17T09:48:22;9.63;;;4.40;;
28627;SDS011;15815;46.760;19.604;2022-09-17T09:57:13;25.55;;;9.10;;
28627;SDS011;15815;46.760;19.604;2022-09-17T09:59:41;8.10;;;5.15;;
28627;SDS011;15815;46.760;19.604;2022-09-17T10:02:07;15.23;;;6.32;;
28627;SDS011;15815;46.760;19.604;2022-09-17T10:04:33;11.68;;;6.43;;
28627;SDS011;15815;46.760;19.604;2022-09-17T10:07:00;11.25;;;6.10;;
28627;SDS011;15815;46.760;19.604;2022-09-17T10:09:28;17.13;;;7.18;;
28627;SDS011;15815;46.760;19.604;2022-09-17T10:12:01;6.68;;;4.40;;
28627;SDS011;15815;46.760;19.604;2022-09-17T10:14:28;8.77;;;4.40;;
28627;SDS011;15815;46.760;19.604;2022-09-17T10:17:09;6.55;;;3.83;;
28627;SDS011;15815;46.760;19.604;2022-09-17T10:20:16;5.75;;;3.60;;
28627;SDS011;15815;46.760;19.604;2022-09-17T10:25:19;6.10;;;3.30;;
28627;SDS011;15815;46.760;19.604;2022-09-17T10:27:51;4.05;;;3.53;;
28627;SDS011;15815;46.760;19.604;2022-09-17T10:30:17;5.40;;;3.15;;
28627;SDS011;15815;46.760;19.604;2022-09-17T10:32:43;6.00;;;3.58;;
28627;SDS011;15815;46.760;19.604;2022-09-17T10:35:37;5.68;;;3.35;;
28627;SDS011;15815;46.760;19.604;2022-09-17T10:38:03;4.35;;;2.90;;
28627;SDS011;15815;46.760;19.604;2022-09-17T10:40:29;5.53;;;3.30;;
28627;SDS011;15815;46.760;19.604;2022-09-17T10:45:57;2.75;;;2.20;;
28627;SDS011;15815;46.760;19.604;2022-09-17T10:48:24;4.07;;;2.45;;
28627;SDS011;15815;46.760;19.604;2022-09-17T10:50:55;6.63;;;2.85;;
28627;SDS011;15815;46.760;19.604;2022-09-17T10:56:41;6.57;;;2.38;;
28627;SDS011;15815;46.760;19.604;2022-09-17T11:01:52;3.85;;;2.20;;
28627;SDS011;15815;46.760;19.604;2022-09-17T11:12:40;7.43;;;2.95;;
28627;SDS011;15815;46.760;19.604;2022-09-17T11:18:31;9.50;;;3.00;;
28627;SDS011;15815;46.760;19.604;2022-09-17T11:26:07;3.92;;;2.33;;
28627;SDS011;15815;46.760;19.604;2022-09-17T11:37:27;4.35;;;2.78;;
28627;SDS011;15815;46.760;19.604;2022-09-17T11:39:58;3.63;;;2.63;;
28627;SDS011;15815;46.760;19.604;2022-09-17T11:45:02;8.50;;;2.85;;
28627;SDS011;15815;46.760;19.604;2022-09-17T11:47:36;4.80;;;2.72;;
28627;SDS011;15815;46.760;19.604;2022-09-17T11:50:13;4.72;;;2.42;;
28627;SDS011;15815;46.760;19.604;2022-09-17T11:58:10;6.13;;;2.50;;
28627;SDS011;15815;46.760;19.604;2022-09-17T12:00:43;4.68;;;2.53;;
28627;SDS011;15815;46.760;19.604;2022-09-17T12:03:17;5.07;;;2.60;;
28627;SDS011;15815;46.760;19.604;2022-09-17T12:05:52;3.60;;;2.67;;
28627;SDS011;15815;46.760;19.604;2022-09-17T12:08:38;2.47;;;2.00;;
28627;SDS011;15815;46.760;19.604;2022-09-17T12:13:51;4.82;;;2.83;;
28627;SDS011;15815;46.760;19.604;2022-09-17T12:16:24;2.90;;;2.30;;
28627;SDS011;15815;46.760;19.604;2022-09-17T12:24:26;4.43;;;2.25;;
28627;SDS011;15815;46.760;19.604;2022-09-17T12:29:39;5.15;;;2.13;;
28627;SDS011;15815;46.760;19.604;2022-09-17T12:46:06;3.10;;;1.60;;
28627;SDS011;15815;46.760;19.604;2022-09-17T12:59:57;4.43;;;1.50;;
28627;SDS011;15815;46.760;19.604;2022-09-17T13:13:21;4.68;;;1.58;;
28627;SDS011;15815;46.760;19.604;2022-09-17T13:18:37;5.80;;;1.73;;
28627;SDS011;15815;46.760;19.604;2022-09-17T13:35:46;4.55;;;1.35;;
28627;SDS011;15815;46.760;19.604;2022-09-17T13:38:24;3.38;;;1.17;;
28627;SDS011;15815;46.760;19.604;2022-09-17T13:40:50;8.82;;;1.50;;
28627;SDS011;15815;46.760;19.604;2022-09-17T13:43:17;3.72;;;1.40;;
28627;SDS011;15815;46.760;19.604;2022-09-17T13:48:17;3.45;;;1.65;;
28627;SDS011;15815;46.760;19.604;2022-09-17T14:13:48;5.07;;;1.70;;
28627;SDS011;15815;46.760;19.604;2022-09-17T14:16:22;4.72;;;1.63;;
28627;SDS011;15815;46.760;19.604;2022-09-17T14:24:57;3.92;;;1.50;;
28627;SDS011;15815;46.760;19.604;2022-09-17T14:35:43;5.68;;;2.03;;
28627;SDS011;15815;46.760;19.604;2022-09-17T14:40:34;7.28;;;1.52;;
28627;SDS011;15815;46.760;19.604;2022-09-17T14:58:18;6.38;;;2.15;;
28627;SDS011;15815;46.760;19.604;2022-09-17T15:01:28;4.28;;;1.77;;
28627;SDS011;15815;46.760;19.604;2022-09-17T15:12:21;2.85;;;1.38;;
28627;SDS011;15815;46.760;19.604;2022-09-17T15:14:58;3.15;;;1.55;;
28627;SDS011;15815;46.760;19.604;2022-09-17T15:20:14;3.80;;;1.58;;
28627;SDS011;15815;46.760;19.604;2022-09-17T15:22:43;6.95;;;1.88;;
28627;SDS011;15815;46.760;19.604;2022-09-17T15:25:41;5.78;;;2.30;;
28627;SDS011;15815;46.760;19.604;2022-09-17T15:30:58;6.97;;;2.17;;
28627;SDS011;15815;46.760;19.604;2022-09-17T15:33:26;4.78;;;1.98;;
28627;SDS011;15815;46.760;19.604;2022-09-17T15:38:38;4.97;;;1.80;;
28627;SDS011;15815;46.760;19.604;2022-09-17T15:52:39;26.10;;;2.85;;
28627;SDS011;15815;46.760;19.604;2022-09-17T15:55:25;11.25;;;2.83;;
28627;SDS011;15815;46.760;19.604;2022-09-17T15:58:05;5.10;;;2.05;;
28627;SDS011;15815;46.760;19.604;2022-09-17T16:04:15;7.70;;;2.42;;
28627;SDS011;15815;46.760;19.604;2022-09-17T16:09:44;3.40;;;2.00;;
28627;SDS011;15815;46.760;19.604;2022-09-17T16:12:12;11.90;;;2.33;;
28627;SDS011;15815;46.760;19.604;2022-09-17T16:14:43;8.30;;;2.28;;
28627;SDS011;15815;46.760;19.604;2022-09-17T16:17:23;4.88;;;2.45;;
28627;SDS011;15815;46.760;19.604;2022-09-17T16:20:12;7.18;;;2.00;;
28627;SDS011;15815;46.760;19.604;2022-09-17T16:22:48;6.72;;;2.08;;
28627;SDS011;15815;46.760;19.604;2022-09-17T16:25:19;10.15;;;2.28;;
28627;SDS011;15815;46.760;19.604;2022-09-17T16:27:48;8.30;;;2.28;;
28627;SDS011;15815;46.760;19.604;2022-09-17T16:30:18;8.93;;;2.47;;
28627;SDS011;15815;46.760;19.604;2022-09-17T16:32:45;7.82;;;3.35;;
28627;SDS011;15815;46.760;19.604;2022-09-17T16:35:14;6.32;;;2.20;;
28627;SDS011;15815;46.760;19.604;2022-09-17T16:37:46;4.65;;;2.40;;
28627;SDS011;15815;46.760;19.604;2022-09-17T16:40:17;3.97;;;1.80;;
28627;SDS011;15815;46.760;19.604;2022-09-17T16:42:43;4.47;;;2.25;;
28627;SDS011;15815;46.760;19.604;2022-09-17T16:45:10;6.45;;;2.00;;
28627;SDS011;15815;46.760;19.604;2022-09-17T16:47:36;4.07;;;2.33;;
28627;SDS011;15815;46.760;19.604;2022-09-17T16:50:03;5.45;;;2.35;;
28627;SDS011;15815;46.760;19.604;2022-09-17T16:52:31;3.47;;;2.10;;
28627;SDS011;15815;46.760;19.604;2022-09-17T16:54:56;8.15;;;2.50;;
28627;SDS011;15815;46.760;19.604;2022-09-17T16:57:21;3.95;;;2.13;;
28627;SDS011;15815;46.760;19.604;2022-09-17T16:59:47;8.95;;;2.50;;
28627;SDS011;15815;46.760;19.604;2022-09-17T17:02:12;5.15;;;2.08;;
28627;SDS011;15815;46.760;19.604;2022-09-17T17:04:37;3.15;;;1.75;;
28627;SDS011;15815;46.760;19.604;2022-09-17T17:07:03;4.53;;;1.90;;
28627;SDS011;15815;46.760;19.604;2022-09-17T17:09:28;5.28;;;2.72;;
28627;SDS011;15815;46.760;19.604;2022-09-17T17:11:55;5.78;;;2.35;;
28627;SDS011;15815;46.760;19.604;2022-09-17T17:14:20;6.22;;;2.95;;
28627;SDS011;15815;46.760;19.604;2022-09-17T17:16:45;8.27;;;2.65;;
28627;SDS011;15815;46.760;19.604;2022-09-17T17:19:11;5.70;;;2.03;;
28627;SDS011;15815;46.760;19.604;2022-09-17T17:21:37;8.05;;;2.33;;
28627;SDS011;15815;46.760;19.604;2022-09-17T17:24:02;7.40;;;2.08;;
28627;SDS011;15815;46.760;19.604;2022-09-17T17:26:28;6.10;;;2.05;;
28627;SDS011;15815;46.760;19.604;2022-09-17T17:28:54;13.00;;;2.17;;
28627;SDS011;15815;46.760;19.604;2022-09-17T17:31:19;7.70;;;2.03;;
28627;SDS011;15815;46.760;19.604;2022-09-17T17:33:45;2.63;;;1.75;;
28627;SDS011;15815;46.760;19.604;2022-09-17T17:36:10;6.85;;;1.88;;
28627;SDS011;15815;46.760;19.604;2022-09-17T17:38:36;6.35;;;2.28;;
28627;SDS011;15815;46.760;19.604;2022-09-17T17:43:32;6.05;;;2.42;;
28627;SDS011;15815;46.760;19.604;2022-09-17T17:45:58;8.10;;;2.25;;
28627;SDS011;15815;46.760;19.604;2022-09-17T17:48:23;5.45;;;2.05;;
28627;SDS011;15815;46.760;19.604;2022-09-17T17:50:48;5.10;;;1.88;;
28627;SDS011;15815;46.760;19.604;2022-09-17T17:53:13;4.95;;;1.80;;
28627;SDS011;15815;46.760;19.604;2022-09-17T17:55:39;9.60;;;2.30;;
28627;SDS011;15815;46.760;19.604;2022-09-17T17:58:04;7.13;;;2.50;;
28627;SDS011;15815;46.760;19.604;2022-09-17T18:00:30;5.32;;;1.98;;
28627;SDS011;15815;46.760;19.604;2022-09-17T18:02:56;7.82;;;2.35;;
28627;SDS011;15815;46.760;19.604;2022-09-17T18:05:21;5.03;;;1.90;;
28627;SDS011;15815;46.760;19.604;2022-09-17T18:07:47;6.75;;;1.70;;
28627;SDS011;15815;46.760;19.604;2022-09-17T18:10:13;4.85;;;2.08;;
28627;SDS011;15815;46.760;19.604;2022-09-17T18:12:39;4.20;;;1.98;;
28627;SDS011;15815;46.760;19.604;2022-09-17T18:15:05;3.28;;;1.88;;
28627;SDS011;15815;46.760;19.604;2022-09-17T18:17:31;7.00;;;2.10;;
28627;SDS011;15815;46.760;19.604;2022-09-17T18:19:56;3.13;;;1.70;;
28627;SDS011;15815;46.760;19.604;2022-09-17T18:22:22;3.22;;;1.98;;
28627;SDS011;15815;46.760;19.604;2022-09-17T18:24:47;3.75;;;1.98;;
28627;SDS011;15815;46.760;19.604;2022-09-17T18:27:13;4.85;;;2.08;;
28627;SDS011;15815;46.760;19.604;2022-09-17T18:29:41;4.82;;;2.35;;
28627;SDS011;15815;46.760;19.604;2022-09-17T18:32:06;3.42;;;1.88;;
28627;SDS011;15815;46.760;19.604;2022-09-17T18:34:32;4.90;;;2.30;;
28627;SDS011;15815;46.760;19.604;2022-09-17T18:36:57;4.63;;;3.13;;
28627;SDS011;15815;46.760;19.604;2022-09-17T18:39:23;3.33;;;1.70;;
28627;SDS011;15815;46.760;19.604;2022-09-17T18:41:48;3.75;;;2.10;;
28627;SDS011;15815;46.760;19.604;2022-09-17T18:44:13;5.85;;;2.50;;
28627;SDS011;15815;46.760;19.604;2022-09-17T18:46:39;4.20;;;1.70;;
28627;SDS011;15815;46.760;19.604;2022-09-17T18:49:06;5.70;;;2.17;;
28627;SDS011;15815;46.760;19.604;2022-09-17T18:51:32;3.67;;;2.03;;
28627;SDS011;15815;46.760;19.604;2022-09-17T18:53:58;5.22;;;2.45;;
28627;SDS011;15815;46.760;19.604;2022-09-17T18:56:25;2.33;;;2.08;;
28627;SDS011;15815;46.760;19.604;2022-09-17T18:58:54;3.53;;;1.88;;
28627;SDS011;15815;46.760;19.604;2022-09-17T19:01:22;7.78;;;2.33;;
28627;SDS011;15815;46.760;19.604;2022-09-17T19:03:51;6.20;;;2.00;;
28627;SDS011;15815;46.760;19.604;2022-09-17T19:06:17;4.57;;;2.08;;
28627;SDS011;15815;46.760;19.604;2022-09-17T19:08:43;7.75;;;2.75;;
28627;SDS011;15815;46.760;19.604;2022-09-17T19:11:09;4.57;;;2.33;;
28627;SDS011;15815;46.760;19.604;2022-09-17T19:13:39;5.15;;;3.05;;
28627;SDS011;15815;46.760;19.604;2022-09-17T19:16:06;5.30;;;2.20;;